createdAt,value
2017-02-19T00:05:43.003Z,1.78
2017-02-19T00:15:42.960Z,1.76
2017-02-19T00:26:08.292Z,1.69
2017-02-19T00:36:08.385Z,1.73
2017-02-19T00:46:08.339Z,1.69
2017-02-19T00:56:08.306Z,1.72
2017-02-19T01:06:08.405Z,1.75
2017-02-19T01:16:08.331Z,1.89
2017-02-19T01:26:08.292Z,1.71
2017-02-19T01:36:08.345Z,1.8
2017-02-19T01:46:08.291Z,1.97
2017-02-19T01:56:08.269Z,2.04
2017-02-19T02:06:08.345Z,1.91
2017-02-19T02:16:08.290Z,1.87
2017-02-19T02:26:08.243Z,1.76
2017-02-19T02:36:08.304Z,1.82
2017-02-19T02:46:08.295Z,1.94
2017-02-19T02:56:08.649Z,2.17
2017-02-19T03:06:08.288Z,2.27
2017-02-19T03:16:08.294Z,2.49
2017-02-19T03:26:08.331Z,2.59
2017-02-19T03:36:08.275Z,2.76
2017-02-19T03:46:08.357Z,2.98
2017-02-19T03:56:08.301Z,2.92
2017-02-19T04:06:08.264Z,2.92
2017-02-19T04:16:08.360Z,2.91
2017-02-19T04:26:08.304Z,2.92
2017-02-19T04:36:08.371Z,3.1
2017-02-19T04:46:08.308Z,3.12
2017-02-19T04:56:08.367Z,3.13
2017-02-19T05:06:08.363Z,3.16
2017-02-19T05:16:08.390Z,3.21
2017-02-19T05:26:08.366Z,3.49
2017-02-19T05:36:08.434Z,3.76
2017-02-19T05:46:08.407Z,3.78
2017-02-19T05:56:08.338Z,3.9
2017-02-19T06:06:08.387Z,4
2017-02-19T06:16:08.388Z,4.01
2017-02-19T06:26:08.430Z,4.1
2017-02-19T06:36:08.384Z,4.1
2017-02-19T06:46:08.455Z,4.12
2017-02-19T06:56:08.413Z,4.1
2017-02-19T07:06:08.483Z,4.29
2017-02-19T07:16:08.456Z,4.34
2017-02-19T07:26:08.501Z,4.58
2017-02-19T07:36:08.467Z,4.76
2017-02-19T07:46:08.527Z,4.96
2017-02-19T07:56:08.498Z,5.28
2017-02-19T08:06:08.454Z,5.7
2017-02-19T08:16:08.519Z,5.91
2017-02-19T08:26:08.517Z,5.85
2017-02-19T08:36:08.532Z,6.03
2017-02-19T08:46:08.483Z,6.41
2017-02-19T08:56:08.557Z,6.46
2017-02-19T09:06:08.541Z,6.66
2017-02-19T09:16:08.723Z,6.79
2017-02-19T09:26:08.564Z,6.97
2017-02-19T09:36:14.583Z,7.15
2017-02-19T09:46:14.869Z,7.42
2017-02-19T09:56:14.075Z,7.67
2017-02-19T10:06:08.645Z,7.69
2017-02-19T10:16:08.713Z,7.94
2017-02-19T10:26:09.079Z,7.97
2017-02-19T10:36:08.684Z,8.07
2017-02-19T10:46:10.571Z,7.99
2017-02-19T10:56:09.602Z,7.78
2017-02-19T11:06:08.608Z,7.62
2017-02-19T11:16:08.657Z,7.58
2017-02-19T11:26:09.798Z,7.44
2017-02-19T11:36:08.724Z,7.27
2017-02-19T11:46:08.687Z,7.04
2017-02-19T11:56:08.739Z,7.17
2017-02-19T12:06:08.665Z,6.97
2017-02-19T12:16:08.849Z,6.91
2017-02-19T12:26:08.693Z,6.95
2017-02-19T12:36:08.713Z,6.98
2017-02-19T12:46:08.718Z,6.77
2017-02-19T12:56:08.746Z,6.89
2017-02-19T13:06:08.731Z,6.9
2017-02-19T13:16:08.753Z,6.77
2017-02-19T13:26:08.757Z,6.99
2017-02-19T13:36:08.894Z,7.08
2017-02-19T13:46:08.827Z,7.22
2017-02-19T13:56:08.788Z,7.2
2017-02-19T14:06:08.818Z,7.41
2017-02-19T14:16:08.734Z,7.24
2017-02-19T14:26:08.851Z,7.09
2017-02-19T14:36:08.901Z,7.04
2017-02-19T14:46:08.937Z,7.02
2017-02-19T14:56:08.828Z,7.01
2017-02-19T15:06:08.865Z,7.12
2017-02-19T15:16:08.877Z,7.13
2017-02-19T15:26:08.878Z,7.02
2017-02-19T15:36:08.908Z,7.13
2017-02-19T15:46:11.602Z,7.16
2017-02-19T15:56:14.220Z,7.13
2017-02-19T16:06:08.895Z,7.22
2017-02-19T16:16:20.418Z,7.12
2017-02-19T16:26:15.767Z,7.08
2017-02-19T16:36:20.706Z,7.16
2017-02-19T16:46:15.391Z,7.16
2017-02-19T16:56:08.953Z,7.12
2017-02-19T17:06:09.020Z,7.16
2017-02-19T17:16:08.930Z,7.26
2017-02-19T17:26:09.036Z,7.16
2017-02-19T17:36:20.481Z,7.31
2017-02-19T17:46:09.013Z,7.23
2017-02-19T17:56:08.945Z,7.32
2017-02-19T18:06:22.245Z,7.23
2017-02-19T18:16:20.031Z,7.37
2017-02-19T18:26:15.557Z,7.17
2017-02-19T18:36:19.539Z,7.23
2017-02-19T18:46:27.657Z,7.2
2017-02-19T18:56:30.732Z,7.12
2017-02-19T20:06:17.901Z,7.53
2017-02-19T20:16:20.532Z,7.55
2017-02-19T20:46:37.426Z,7.4
2017-02-19T21:06:09.246Z,7.34
2017-02-19T21:26:09.221Z,7.35
2017-02-19T21:36:29.247Z,7.27
2017-02-19T21:46:25.879Z,7.34
2017-02-19T22:06:09.229Z,7.44
2017-02-19T22:26:21.334Z,7.52
2017-02-19T22:36:21.281Z,7.38
2017-02-19T22:46:11.959Z,7.32
2017-02-19T22:56:09.244Z,7.34
2017-02-19T23:06:21.567Z,7.42
2017-02-19T23:16:15.148Z,7.42
2017-02-19T23:26:14.557Z,7.24
2017-02-19T23:36:45.248Z,6.99
2017-02-19T23:46:13.971Z,6.77
